sensor_id;sensor_type;location;lat;lon;timestamp;temperature;humidity
8152;DHT22;4117;53.622;9.958;2023-05-15T00:01:58;12.60;1.00
8152;DHT22;4117;53.622;9.958;2023-05-15T00:04:26;12.60;1.00
8152;DHT22;4117;53.622;9.958;2023-05-15T00:06:53;12.60;1.00
8152;DHT22;4117;53.622;9.958;2023-05-15T00:09:21;12.50;1.00
8152;DHT22;4117;53.622;9.958;2023-05-15T00:11:48;12.50;1.00
8152;DHT22;4117;53.622;9.958;2023-05-15T00:14:15;12.50;1.00
8152;DHT22;4117;53.622;9.958;2023-05-15T00:16:42;12.50;1.00
8152;DHT22;4117;53.622;9.958;2023-05-15T00:19:09;12.40;1.00
8152;DHT22;4117;53.622;9.958;2023-05-15T00:21:36;12.40;1.00
8152;DHT22;4117;53.622;9.958;2023-05-15T00:24:03;12.40;1.00
8152;DHT22;4117;53.622;9.958;2023-05-15T00:26:32;12.30;1.00
8152;DHT22;4117;53.622;9.958;2023-05-15T00:28:59;12.30;1.00
8152;DHT22;4117;53.622;9.958;2023-05-15T00:31:26;12.20;1.00
8152;DHT22;4117;53.622;9.958;2023-05-15T00:33:52;12.20;1.00
8152;DHT22;4117;53.622;9.958;2023-05-15T00:36:19;12.20;1.00
8152;DHT22;4117;53.622;9.958;2023-05-15T00:38:48;12.10;1.00
8152;DHT22;4117;53.622;9.958;2023-05-15T00:41:16;12.10;1.00
8152;DHT22;4117;53.622;9.958;2023-05-15T00:43:45;12.10;1.00
8152;DHT22;4117;53.622;9.958;2023-05-15T00:46:15;12.10;1.00
8152;DHT22;4117;53.622;9.958;2023-05-15T00:48:42;12.00;1.00
8152;DHT22;4117;53.622;9.958;2023-05-15T00:51:09;12.00;1.00
8152;DHT22;4117;53.622;9.958;2023-05-15T00:53:37;11.90;1.00
8152;DHT22;4117;53.622;9.958;2023-05-15T00:56:05;11.90;1.00
8152;DHT22;4117;53.622;9.958;2023-05-15T00:58:36;11.90;1.00
8152;DHT22;4117;53.622;9.958;2023-05-15T01:01:05;11.80;1.00
8152;DHT22;4117;53.622;9.958;2023-05-15T01:03:32;11.80;1.00
8152;DHT22;4117;53.622;9.958;2023-05-15T01:05:59;11.80;1.00
8152;DHT22;4117;53.622;9.958;2023-05-15T01:08:33;11.80;1.00
8152;DHT22;4117;53.622;9.958;2023-05-15T01:11:05;11.70;1.00
8152;DHT22;4117;53.622;9.958;2023-05-15T01:13:33;11.70;1.00
8152;DHT22;4117;53.622;9.958;2023-05-15T01:16:01;11.70;1.00
8152;DHT22;4117;53.622;9.958;2023-05-15T01:18:29;11.60;1.00
8152;DHT22;4117;53.622;9.958;2023-05-15T01:24:26;11.60;1.00
8152;DHT22;4117;53.622;9.958;2023-05-15T01:27:17;11.50;1.00
8152;DHT22;4117;53.622;9.958;2023-05-15T01:29:54;11.50;1.00
8152;DHT22;4117;53.622;9.958;2023-05-15T01:32:26;11.50;1.00
8152;DHT22;4117;53.622;9.958;2023-05-15T01:35:00;11.50;1.00
8152;DHT22;4117;53.622;9.958;2023-05-15T01:37:31;11.40;1.00
8152;DHT22;4117;53.622;9.958;2023-05-15T01:40:02;11.30;1.00
8152;DHT22;4117;53.622;9.958;2023-05-15T01:42:33;11.30;1.00
8152;DHT22;4117;53.622;9.958;2023-05-15T01:45:04;11.30;1.00
8152;DHT22;4117;53.622;9.958;2023-05-15T01:47:37;11.30;1.00
8152;DHT22;4117;53.622;9.958;2023-05-15T01:50:05;11.30;1.00
8152;DHT22;4117;53.622;9.958;2023-05-15T01:52:34;11.20;1.00
8152;DHT22;4117;53.622;9.958;2023-05-15T01:55:04;11.20;1.00
8152;DHT22;4117;53.622;9.958;2023-05-15T01:57:34;11.20;1.00
8152;DHT22;4117;53.622;9.958;2023-05-15T02:00:02;11.10;1.00
8152;DHT22;4117;53.622;9.958;2023-05-15T02:02:29;11.10;1.00
8152;DHT22;4117;53.622;9.958;2023-05-15T02:04:57;11.10;1.00
8152;DHT22;4117;53.622;9.958;2023-05-15T02:07:25;11.10;1.00
8152;DHT22;4117;53.622;9.958;2023-05-15T02:09:53;11.10;1.00
8152;DHT22;4117;53.622;9.958;2023-05-15T02:12:21;11.10;1.00
8152;DHT22;4117;53.622;9.958;2023-05-15T02:14:50;11.00;1.00
8152;DHT22;4117;53.622;9.958;2023-05-15T02:17:19;11.00;1.00
8152;DHT22;4117;53.622;9.958;2023-05-15T02:19:46;11.00;1.00
8152;DHT22;4117;53.622;9.958;2023-05-15T02:22:13;10.90;1.00
8152;DHT22;4117;53.622;9.958;2023-05-15T02:24:40;10.90;1.00
8152;DHT22;4117;53.622;9.958;2023-05-15T02:27:12;10.90;1.00
8152;DHT22;4117;53.622;9.958;2023-05-15T02:30:02;10.80;1.00
8152;DHT22;4117;53.622;9.958;2023-05-15T02:32:33;10.80;1.00
8152;DHT22;4117;53.622;9.958;2023-05-15T02:35:13;10.80;1.00
8152;DHT22;4117;53.622;9.958;2023-05-15T02:37:46;10.80;1.00
8152;DHT22;4117;53.622;9.958;2023-05-15T02:40:14;10.80;1.00
8152;DHT22;4117;53.622;9.958;2023-05-15T02:42:43;10.70;1.00
8152;DHT22;4117;53.622;9.958;2023-05-15T02:45:13;10.70;1.00
8152;DHT22;4117;53.622;9.958;2023-05-15T02:47:41;10.70;1.00
8152;DHT22;4117;53.622;9.958;2023-05-15T02:50:09;10.70;1.00
8152;DHT22;4117;53.622;9.958;2023-05-15T02:52:36;10.60;1.00
8152;DHT22;4117;53.622;9.958;2023-05-15T02:55:04;10.60;1.00
8152;DHT22;4117;53.622;9.958;2023-05-15T02:57:31;10.60;1.00
8152;DHT22;4117;53.622;9.958;2023-05-15T02:59:58;10.50;1.00
8152;DHT22;4117;53.622;9.958;2023-05-15T03:02:27;10.50;1.00
8152;DHT22;4117;53.622;9.958;2023-05-15T03:04:54;10.50;1.00
8152;DHT22;4117;53.622;9.958;2023-05-15T03:07:20;10.50;1.00
8152;DHT22;4117;53.622;9.958;2023-05-15T03:09:47;10.40;1.00
8152;DHT22;4117;53.622;9.958;2023-05-15T03:12:14;10.40;1.00
8152;DHT22;4117;53.622;9.958;2023-05-15T03:14:41;10.40;1.00
8152;DHT22;4117;53.622;9.958;2023-05-15T03:17:08;10.30;1.00
8152;DHT22;4117;53.622;9.958;2023-05-15T03:19:36;10.40;1.00
8152;DHT22;4117;53.622;9.958;2023-05-15T03:22:04;10.30;1.00
8152;DHT22;4117;53.622;9.958;2023-05-15T03:24:30;10.30;1.00
8152;DHT22;4117;53.622;9.958;2023-05-15T03:26:58;10.30;1.00
8152;DHT22;4117;53.622;9.958;2023-05-15T03:29:25;10.30;1.00
8152;DHT22;4117;53.622;9.958;2023-05-15T03:31:52;10.30;1.00
8152;DHT22;4117;53.622;9.958;2023-05-15T03:34:19;10.20;1.00
8152;DHT22;4117;53.622;9.958;2023-05-15T03:36:47;10.20;1.00
8152;DHT22;4117;53.622;9.958;2023-05-15T03:39:15;10.20;1.00
8152;DHT22;4117;53.622;9.958;2023-05-15T03:41:42;10.20;1.00
8152;DHT22;4117;53.622;9.958;2023-05-15T03:44:09;10.20;1.00
8152;DHT22;4117;53.622;9.958;2023-05-15T03:46:36;10.20;1.00
8152;DHT22;4117;53.622;9.958;2023-05-15T03:49:03;10.20;1.00
8152;DHT22;4117;53.622;9.958;2023-05-15T03:51:30;10.20;1.00
8152;DHT22;4117;53.622;9.958;2023-05-15T03:53:58;10.20;1.00
8152;DHT22;4117;53.622;9.958;2023-05-15T03:56:25;10.20;1.00
8152;DHT22;4117;53.622;9.958;2023-05-15T03:58:52;10.10;1.00
8152;DHT22;4117;53.622;9.958;2023-05-15T04:01:19;10.20;1.00
8152;DHT22;4117;53.622;9.958;2023-05-15T04:03:46;10.20;1.00
8152;DHT22;4117;53.622;9.958;2023-05-15T04:06:13;10.10;1.00
8152;DHT22;4117;53.622;9.958;2023-05-15T04:08:40;10.10;1.00
8152;DHT22;4117;53.622;9.958;2023-05-15T04:11:09;10.10;1.00
8152;DHT22;4117;53.622;9.958;2023-05-15T04:13:36;10.20;1.00
8152;DHT22;4117;53.622;9.958;2023-05-15T04:16:03;10.10;1.00
8152;DHT22;4117;53.622;9.958;2023-05-15T04:18:31;10.20;1.00
8152;DHT22;4117;53.622;9.958;2023-05-15T04:20:58;10.20;1.00
8152;DHT22;4117;53.622;9.958;2023-05-15T04:23:25;10.20;1.00
8152;DHT22;4117;53.622;9.958;2023-05-15T04:25:52;10.20;1.00
8152;DHT22;4117;53.622;9.958;2023-05-15T04:28:21;10.20;1.00
8152;DHT22;4117;53.622;9.958;2023-05-15T04:30:48;10.20;1.00
8152;DHT22;4117;53.622;9.958;2023-05-15T04:33:15;10.30;1.00
8152;DHT22;4117;53.622;9.958;2023-05-15T04:35:42;10.30;1.00
8152;DHT22;4117;53.622;9.958;2023-05-15T04:38:09;10.30;1.00
8152;DHT22;4117;53.622;9.958;2023-05-15T04:40:36;10.30;1.00
8152;DHT22;4117;53.622;9.958;2023-05-15T04:43:03;10.30;1.00
8152;DHT22;4117;53.622;9.958;2023-05-15T04:45:32;10.40;1.00
8152;DHT22;4117;53.622;9.958;2023-05-15T04:47:59;10.40;1.00
8152;DHT22;4117;53.622;9.958;2023-05-15T04:50:26;10.40;1.00
8152;DHT22;4117;53.622;9.958;2023-05-15T04:52:53;10.40;1.00
8152;DHT22;4117;53.622;9.958;2023-05-15T04:55:20;10.50;1.00
8152;DHT22;4117;53.622;9.958;2023-05-15T04:57:47;10.50;1.00
8152;DHT22;4117;53.622;9.958;2023-05-15T05:00:14;10.60;1.00
8152;DHT22;4117;53.622;9.958;2023-05-15T05:02:43;10.60;1.00
8152;DHT22;4117;53.622;9.958;2023-05-15T05:05:10;10.70;1.00
8152;DHT22;4117;53.622;9.958;2023-05-15T05:07:39;10.80;1.00
8152;DHT22;4117;53.622;9.958;2023-05-15T05:10:08;10.90;1.00
8152;DHT22;4117;53.622;9.958;2023-05-15T05:12:35;10.90;1.00
8152;DHT22;4117;53.622;9.958;2023-05-15T05:15:02;11.00;1.00
8152;DHT22;4117;53.622;9.958;2023-05-15T05:17:29;11.10;1.00
8152;DHT22;4117;53.622;9.958;2023-05-15T05:19:57;11.20;1.00
8152;DHT22;4117;53.622;9.958;2023-05-15T05:22:24;11.20;1.00
8152;DHT22;4117;53.622;9.958;2023-05-15T05:24:51;11.30;1.00
8152;DHT22;4117;53.622;9.958;2023-05-15T05:27:18;11.40;1.00
8152;DHT22;4117;53.622;9.958;2023-05-15T05:29:45;11.40;1.00
8152;DHT22;4117;53.622;9.958;2023-05-15T05:32:12;11.50;1.00
8152;DHT22;4117;53.622;9.958;2023-05-15T05:34:39;11.60;1.00
8152;DHT22;4117;53.622;9.958;2023-05-15T05:37:08;11.60;1.00
8152;DHT22;4117;53.622;9.958;2023-05-15T05:39:35;11.70;1.00
8152;DHT22;4117;53.622;9.958;2023-05-15T05:42:02;11.80;1.00
8152;DHT22;4117;53.622;9.958;2023-05-15T05:44:29;11.90;1.00
8152;DHT22;4117;53.622;9.958;2023-05-15T05:46:56;12.00;1.00
8152;DHT22;4117;53.622;9.958;2023-05-15T05:49:22;12.10;1.00
8152;DHT22;4117;53.622;9.958;2023-05-15T05:51:49;12.10;1.00
8152;DHT22;4117;53.622;9.958;2023-05-15T05:54:18;12.20;1.00
8152;DHT22;4117;53.622;9.958;2023-05-15T05:56:45;12.30;1.00
8152;DHT22;4117;53.622;9.958;2023-05-15T05:59:12;12.40;1.00
8152;DHT22;4117;53.622;9.958;2023-05-15T06:01:39;12.50;1.00
8152;DHT22;4117;53.622;9.958;2023-05-15T06:04:06;12.60;1.00
8152;DHT22;4117;53.622;9.958;2023-05-15T06:06:33;12.70;1.00
8152;DHT22;4117;53.622;9.958;2023-05-15T06:09:00;12.80;1.00
8152;DHT22;4117;53.622;9.958;2023-05-15T06:11:30;12.90;1.00
8152;DHT22;4117;53.622;9.958;2023-05-15T06:13:56;12.90;1.00
8152;DHT22;4117;53.622;9.958;2023-05-15T06:16:23;13.00;1.00
8152;DHT22;4117;53.622;9.958;2023-05-15T06:18:51;13.10;1.00
8152;DHT22;4117;53.622;9.958;2023-05-15T06:21:18;13.10;1.00
8152;DHT22;4117;53.622;9.958;2023-05-15T06:23:46;13.20;1.00
8152;DHT22;4117;53.622;9.958;2023-05-15T06:26:13;13.20;1.00
8152;DHT22;4117;53.622;9.958;2023-05-15T06:28:42;13.30;1.00
8152;DHT22;4117;53.622;9.958;2023-05-15T06:31:10;13.40;1.00
8152;DHT22;4117;53.622;9.958;2023-05-15T06:33:37;13.60;1.00
8152;DHT22;4117;53.622;9.958;2023-05-15T06:36:04;13.70;1.00
8152;DHT22;4117;53.622;9.958;2023-05-15T06:38:31;13.80;1.00
8152;DHT22;4117;53.622;9.958;2023-05-15T06:40:58;13.90;1.00
8152;DHT22;4117;53.622;9.958;2023-05-15T06:43:25;14.00;1.00
8152;DHT22;4117;53.622;9.958;2023-05-15T06:45:53;14.10;1.00
8152;DHT22;4117;53.622;9.958;2023-05-15T06:48:20;14.30;1.00
8152;DHT22;4117;53.622;9.958;2023-05-15T06:50:47;14.40;1.00
8152;DHT22;4117;53.622;9.958;2023-05-15T06:53:14;14.60;1.00
8152;DHT22;4117;53.622;9.958;2023-05-15T06:55:42;14.70;1.00
8152;DHT22;4117;53.622;9.958;2023-05-15T06:58:09;14.90;1.00
8152;DHT22;4117;53.622;9.958;2023-05-15T07:00:36;15.10;1.00
8152;DHT22;4117;53.622;9.958;2023-05-15T07:03:05;15.10;1.00
8152;DHT22;4117;53.622;9.958;2023-05-15T07:05:32;15.30;1.00
8152;DHT22;4117;53.622;9.958;2023-05-15T07:07:59;15.50;1.00
8152;DHT22;4117;53.622;9.958;2023-05-15T07:10:26;15.60;1.00
8152;DHT22;4117;53.622;9.958;2023-05-15T07:12:53;15.80;1.00
8152;DHT22;4117;53.622;9.958;2023-05-15T07:15:20;15.90;1.00
8152;DHT22;4117;53.622;9.958;2023-05-15T07:17:47;16.00;1.00
8152;DHT22;4117;53.622;9.958;2023-05-15T07:20:16;16.00;1.00
8152;DHT22;4117;53.622;9.958;2023-05-15T07:22:43;16.10;1.00
8152;DHT22;4117;53.622;9.958;2023-05-15T07:25:10;16.20;1.00
8152;DHT22;4117;53.622;9.958;2023-05-15T07:27:37;16.40;1.00
8152;DHT22;4117;53.622;9.958;2023-05-15T07:30:05;16.50;1.00
8152;DHT22;4117;53.622;9.958;2023-05-15T07:32:32;16.50;1.00
8152;DHT22;4117;53.622;9.958;2023-05-15T07:34:59;16.50;1.00
8152;DHT22;4117;53.622;9.958;2023-05-15T07:37:30;16.50;1.00
8152;DHT22;4117;53.622;9.958;2023-05-15T07:39:57;16.60;1.00
8152;DHT22;4117;53.622;9.958;2023-05-15T07:42:24;16.60;1.00
8152;DHT22;4117;53.622;9.958;2023-05-15T07:44:51;16.70;1.00
8152;DHT22;4117;53.622;9.958;2023-05-15T07:47:18;16.80;1.00
8152;DHT22;4117;53.622;9.958;2023-05-15T07:49:45;16.90;1.00
8152;DHT22;4117;53.622;9.958;2023-05-15T07:52:12;16.90;1.00
8152;DHT22;4117;53.622;9.958;2023-05-15T07:54:40;17.00;1.00
8152;DHT22;4117;53.622;9.958;2023-05-15T07:57:07;16.90;1.00
8152;DHT22;4117;53.622;9.958;2023-05-15T07:59:35;17.00;1.00
8152;DHT22;4117;53.622;9.958;2023-05-15T08:02:02;17.00;1.00
8152;DHT22;4117;53.622;9.958;2023-05-15T08:04:29;17.10;1.00
8152;DHT22;4117;53.622;9.958;2023-05-15T08:06:56;17.10;1.00
8152;DHT22;4117;53.622;9.958;2023-05-15T08:09:23;17.10;1.00
8152;DHT22;4117;53.622;9.958;2023-05-15T08:11:54;17.20;1.00
8152;DHT22;4117;53.622;9.958;2023-05-15T08:14:21;17.20;1.00
8152;DHT22;4117;53.622;9.958;2023-05-15T08:16:48;17.30;1.00
8152;DHT22;4117;53.622;9.958;2023-05-15T08:19:16;17.30;1.00
8152;DHT22;4117;53.622;9.958;2023-05-15T08:21:43;17.30;1.00
8152;DHT22;4117;53.622;9.958;2023-05-15T08:24:10;17.50;1.00
8152;DHT22;4117;53.622;9.958;2023-05-15T08:26:37;17.50;1.00
8152;DHT22;4117;53.622;9.958;2023-05-15T08:29:06;17.60;1.00
8152;DHT22;4117;53.622;9.958;2023-05-15T08:31:33;17.60;1.00
8152;DHT22;4117;53.622;9.958;2023-05-15T08:34:00;17.70;1.00
8152;DHT22;4117;53.622;9.958;2023-05-15T08:36:28;17.70;1.00
8152;DHT22;4117;53.622;9.958;2023-05-15T08:38:56;17.70;1.00
8152;DHT22;4117;53.622;9.958;2023-05-15T08:41:29;17.80;1.00
8152;DHT22;4117;53.622;9.958;2023-05-15T08:44:00;17.80;1.00
8152;DHT22;4117;53.622;9.958;2023-05-15T08:46:30;17.90;1.00
8152;DHT22;4117;53.622;9.958;2023-05-15T08:48:58;18.00;1.00
8152;DHT22;4117;53.622;9.958;2023-05-15T08:51:27;18.00;1.00
8152;DHT22;4117;53.622;9.958;2023-05-15T08:53:55;18.00;1.00
8152;DHT22;4117;53.622;9.958;2023-05-15T08:56:22;18.00;1.00
8152;DHT22;4117;53.622;9.958;2023-05-15T08:58:50;18.10;1.00
8152;DHT22;4117;53.622;9.958;2023-05-15T09:01:17;18.10;1.00
8152;DHT22;4117;53.622;9.958;2023-05-15T09:03:45;18.10;1.00
8152;DHT22;4117;53.622;9.958;2023-05-15T09:06:13;18.20;1.00
8152;DHT22;4117;53.622;9.958;2023-05-15T09:08:41;18.30;1.00
8152;DHT22;4117;53.622;9.958;2023-05-15T09:11:09;18.30;1.00
8152;DHT22;4117;53.622;9.958;2023-05-15T09:13:36;18.40;1.00
8152;DHT22;4117;53.622;9.958;2023-05-15T09:16:04;18.50;1.00
8152;DHT22;4117;53.622;9.958;2023-05-15T09:18:33;18.50;1.00
8152;DHT22;4117;53.622;9.958;2023-05-15T09:21:22;18.50;1.00
8152;DHT22;4117;53.622;9.958;2023-05-15T09:23:49;18.50;1.00
8152;DHT22;4117;53.622;9.958;2023-05-15T09:26:16;18.60;1.00
8152;DHT22;4117;53.622;9.958;2023-05-15T09:28:43;18.70;1.00
8152;DHT22;4117;53.622;9.958;2023-05-15T09:31:11;18.70;1.00
8152;DHT22;4117;53.622;9.958;2023-05-15T09:33:39;18.70;1.00
8152;DHT22;4117;53.622;9.958;2023-05-15T09:36:07;18.80;1.00
8152;DHT22;4117;53.622;9.958;2023-05-15T09:38:41;18.90;1.00
8152;DHT22;4117;53.622;9.958;2023-05-15T09:41:12;19.00;1.00
8152;DHT22;4117;53.622;9.958;2023-05-15T09:43:40;19.00;1.00
8152;DHT22;4117;53.622;9.958;2023-05-15T09:46:07;19.00;1.00
8152;DHT22;4117;53.622;9.958;2023-05-15T09:48:37;19.00;1.00
8152;DHT22;4117;53.622;9.958;2023-05-15T09:51:05;19.10;1.00
8152;DHT22;4117;53.622;9.958;2023-05-15T09:53:41;19.00;1.00
8152;DHT22;4117;53.622;9.958;2023-05-15T09:56:08;19.10;1.00
8152;DHT22;4117;53.622;9.958;2023-05-15T09:58:37;19.10;1.00
8152;DHT22;4117;53.622;9.958;2023-05-15T10:01:19;19.10;1.00
8152;DHT22;4117;53.622;9.958;2023-05-15T10:03:56;19.10;1.00
8152;DHT22;4117;53.622;9.958;2023-05-15T10:06:23;19.20;1.00
8152;DHT22;4117;53.622;9.958;2023-05-15T10:08:52;19.20;1.00
8152;DHT22;4117;53.622;9.958;2023-05-15T10:11:20;19.30;1.00
8152;DHT22;4117;53.622;9.958;2023-05-15T10:13:47;19.30;1.00
8152;DHT22;4117;53.622;9.958;2023-05-15T10:16:14;19.40;1.00
8152;DHT22;4117;53.622;9.958;2023-05-15T10:18:44;19.40;1.00
8152;DHT22;4117;53.622;9.958;2023-05-15T10:21:12;19.40;1.00
8152;DHT22;4117;53.622;9.958;2023-05-15T10:23:43;19.60;1.00
8152;DHT22;4117;53.622;9.958;2023-05-15T10:26:17;19.60;1.00
8152;DHT22;4117;53.622;9.958;2023-05-15T10:28:47;19.60;1.00
8152;DHT22;4117;53.622;9.958;2023-05-15T10:31:17;19.60;1.00
8152;DHT22;4117;53.622;9.958;2023-05-15T10:33:44;19.70;1.00
8152;DHT22;4117;53.622;9.958;2023-05-15T10:36:12;19.90;1.00
8152;DHT22;4117;53.622;9.958;2023-05-15T10:38:40;19.90;1.00
8152;DHT22;4117;53.622;9.958;2023-05-15T10:41:10;20.00;1.00
8152;DHT22;4117;53.622;9.958;2023-05-15T10:43:40;19.90;1.00
8152;DHT22;4117;53.622;9.958;2023-05-15T10:46:08;19.90;1.00
8152;DHT22;4117;53.622;9.958;2023-05-15T10:48:36;20.00;1.00
8152;DHT22;4117;53.622;9.958;2023-05-15T10:51:03;20.00;1.00
8152;DHT22;4117;53.622;9.958;2023-05-15T10:53:31;20.00;1.00
8152;DHT22;4117;53.622;9.958;2023-05-15T10:55:58;20.10;1.00
8152;DHT22;4117;53.622;9.958;2023-05-15T10:58:25;20.20;1.00
8152;DHT22;4117;53.622;9.958;2023-05-15T11:00:54;20.20;1.00
8152;DHT22;4117;53.622;9.958;2023-05-15T11:03:34;20.30;1.00
8152;DHT22;4117;53.622;9.958;2023-05-15T11:06:09;20.30;1.00
8152;DHT22;4117;53.622;9.958;2023-05-15T11:08:37;20.40;1.00
8152;DHT22;4117;53.622;9.958;2023-05-15T11:11:04;20.50;1.00
8152;DHT22;4117;53.622;9.958;2023-05-15T11:17:00;20.50;1.00
8152;DHT22;4117;53.622;9.958;2023-05-15T11:19:34;20.50;1.00
8152;DHT22;4117;53.622;9.958;2023-05-15T11:22:05;20.60;1.00
8152;DHT22;4117;53.622;9.958;2023-05-15T11:24:50;20.70;1.00
8152;DHT22;4117;53.622;9.958;2023-05-15T11:27:19;20.70;1.00
8152;DHT22;4117;53.622;9.958;2023-05-15T11:30:03;20.70;1.00
8152;DHT22;4117;53.622;9.958;2023-05-15T11:35:26;20.90;1.00
8152;DHT22;4117;53.622;9.958;2023-05-15T11:37:55;20.90;1.00
8152;DHT22;4117;53.622;9.958;2023-05-15T11:40:24;20.90;1.00
8152;DHT22;4117;53.622;9.958;2023-05-15T11:42:59;20.90;1.00
8152;DHT22;4117;53.622;9.958;2023-05-15T11:45:28;20.90;1.00
8152;DHT22;4117;53.622;9.958;2023-05-15T11:47:58;20.90;1.00
8152;DHT22;4117;53.622;9.958;2023-05-15T11:50:26;21.00;1.00
8152;DHT22;4117;53.622;9.958;2023-05-15T11:52:53;21.10;1.00
8152;DHT22;4117;53.622;9.958;2023-05-15T11:55:20;21.00;1.00
8152;DHT22;4117;53.622;9.958;2023-05-15T11:57:48;21.20;1.00
8152;DHT22;4117;53.622;9.958;2023-05-15T12:00:15;21.30;1.00
8152;DHT22;4117;53.622;9.958;2023-05-15T12:02:42;21.40;1.00
8152;DHT22;4117;53.622;9.958;2023-05-15T12:05:11;21.40;1.00
8152;DHT22;4117;53.622;9.958;2023-05-15T12:07:40;21.20;1.00
8152;DHT22;4117;53.622;9.958;2023-05-15T12:10:09;21.20;1.00
8152;DHT22;4117;53.622;9.958;2023-05-15T12:12:39;21.10;1.00
8152;DHT22;4117;53.622;9.958;2023-05-15T12:15:08;21.10;1.00
8152;DHT22;4117;53.622;9.958;2023-05-15T12:17:36;21.00;1.00
8152;DHT22;4117;53.622;9.958;2023-05-15T12:20:07;20.90;1.00
8152;DHT22;4117;53.622;9.958;2023-05-15T12:22:37;20.80;1.00
8152;DHT22;4117;53.622;9.958;2023-05-15T12:25:05;20.80;1.00
8152;DHT22;4117;53.622;9.958;2023-05-15T12:27:33;20.70;1.00
8152;DHT22;4117;53.622;9.958;2023-05-15T12:30:01;20.60;1.00
8152;DHT22;4117;53.622;9.958;2023-05-15T12:32:30;20.60;1.00
8152;DHT22;4117;53.622;9.958;2023-05-15T12:34:59;20.50;1.00
8152;DHT22;4117;53.622;9.958;2023-05-15T12:37:30;20.50;1.00
8152;DHT22;4117;53.622;9.958;2023-05-15T12:40:01;20.50;1.00
8152;DHT22;4117;53.622;9.958;2023-05-15T12:42:29;20.40;1.00
8152;DHT22;4117;53.622;9.958;2023-05-15T12:44:56;20.40;1.00
8152;DHT22;4117;53.622;9.958;2023-05-15T12:47:24;20.40;1.00
8152;DHT22;4117;53.622;9.958;2023-05-15T12:49:55;20.30;1.00
8152;DHT22;4117;53.622;9.958;2023-05-15T12:52:22;20.20;1.00
8152;DHT22;4117;53.622;9.958;2023-05-15T12:54:49;20.20;1.00
8152;DHT22;4117;53.622;9.958;2023-05-15T12:57:18;20.10;1.00
8152;DHT22;4117;53.622;9.958;2023-05-15T12:59:46;20.00;1.00
8152;DHT22;4117;53.622;9.958;2023-05-15T13:02:13;20.10;1.00
8152;DHT22;4117;53.622;9.958;2023-05-15T13:04:40;20.10;1.00
8152;DHT22;4117;53.622;9.958;2023-05-15T13:07:07;20.00;1.00
8152;DHT22;4117;53.622;9.958;2023-05-15T13:09:34;20.10;1.00
8152;DHT22;4117;53.622;9.958;2023-05-15T13:12:01;20.10;1.00
8152;DHT22;4117;53.622;9.958;2023-05-15T13:14:33;20.00;1.00
8152;DHT22;4117;53.622;9.958;2023-05-15T13:17:01;20.10;1.00
8152;DHT22;4117;53.622;9.958;2023-05-15T13:19:31;20.00;1.00
8152;DHT22;4117;53.622;9.958;2023-05-15T13:21:58;20.00;1.00
8152;DHT22;4117;53.622;9.958;2023-05-15T13:24:27;20.00;1.00
8152;DHT22;4117;53.622;9.958;2023-05-15T13:26:54;20.00;1.00
8152;DHT22;4117;53.622;9.958;2023-05-15T13:29:21;19.90;1.00
8152;DHT22;4117;53.622;9.958;2023-05-15T13:31:49;19.90;1.00
8152;DHT22;4117;53.622;9.958;2023-05-15T13:34:16;19.80;1.00
8152;DHT22;4117;53.622;9.958;2023-05-15T13:36:43;19.80;1.00
8152;DHT22;4117;53.622;9.958;2023-05-15T13:39:10;19.70;1.00
8152;DHT22;4117;53.622;9.958;2023-05-15T13:41:37;19.70;1.00
8152;DHT22;4117;53.622;9.958;2023-05-15T13:44:04;19.70;1.00
8152;DHT22;4117;53.622;9.958;2023-05-15T13:46:31;19.70;1.00
8152;DHT22;4117;53.622;9.958;2023-05-15T13:49:00;19.70;1.00
8152;DHT22;4117;53.622;9.958;2023-05-15T13:51:26;19.60;1.00
8152;DHT22;4117;53.622;9.958;2023-05-15T13:53:56;19.60;1.00
8152;DHT22;4117;53.622;9.958;2023-05-15T13:56:23;19.60;1.00
8152;DHT22;4117;53.622;9.958;2023-05-15T13:58:50;19.60;1.00
8152;DHT22;4117;53.622;9.958;2023-05-15T14:01:17;19.60;1.00
8152;DHT22;4117;53.622;9.958;2023-05-15T14:03:44;19.60;1.00
8152;DHT22;4117;53.622;9.958;2023-05-15T14:06:13;19.60;1.00
8152;DHT22;4117;53.622;9.958;2023-05-15T14:08:39;19.50;1.00
8152;DHT22;4117;53.622;9.958;2023-05-15T14:11:06;19.50;1.00
8152;DHT22;4117;53.622;9.958;2023-05-15T14:13:33;19.50;1.00
8152;DHT22;4117;53.622;9.958;2023-05-15T14:16:00;19.40;1.00
8152;DHT22;4117;53.622;9.958;2023-05-15T14:18:27;19.40;1.00
8152;DHT22;4117;53.622;9.958;2023-05-15T14:20:54;19.30;1.00
8152;DHT22;4117;53.622;9.958;2023-05-15T14:23:22;19.20;1.00
8152;DHT22;4117;53.622;9.958;2023-05-15T14:25:49;19.20;1.00
8152;DHT22;4117;53.622;9.958;2023-05-15T14:28:16;19.10;1.00
8152;DHT22;4117;53.622;9.958;2023-05-15T14:30:43;19.10;1.00
8152;DHT22;4117;53.622;9.958;2023-05-15T14:33:10;19.10;1.00
8152;DHT22;4117;53.622;9.958;2023-05-15T14:35:37;18.90;1.00
8152;DHT22;4117;53.622;9.958;2023-05-15T14:38:04;18.80;1.00
8152;DHT22;4117;53.622;9.958;2023-05-15T14:40:33;18.90;1.00
8152;DHT22;4117;53.622;9.958;2023-05-15T14:43:00;19.00;1.00
8152;DHT22;4117;53.622;9.958;2023-05-15T14:45:27;19.10;1.00
8152;DHT22;4117;53.622;9.958;2023-05-15T14:47:53;19.20;1.00
8152;DHT22;4117;53.622;9.958;2023-05-15T14:50:20;19.30;1.00
8152;DHT22;4117;53.622;9.958;2023-05-15T14:52:47;19.30;1.00
8152;DHT22;4117;53.622;9.958;2023-05-15T14:55:14;19.30;1.00
8152;DHT22;4117;53.622;9.958;2023-05-15T14:57:47;19.20;1.00
8152;DHT22;4117;53.622;9.958;2023-05-15T15:00:15;19.30;1.00
8152;DHT22;4117;53.622;9.958;2023-05-15T15:02:42;19.20;1.00
8152;DHT22;4117;53.622;9.958;2023-05-15T15:05:09;19.20;1.00
8152;DHT22;4117;53.622;9.958;2023-05-15T15:07:58;19.10;1.00
8152;DHT22;4117;53.622;9.958;2023-05-15T15:10:25;19.10;1.00
8152;DHT22;4117;53.622;9.958;2023-05-15T15:12:53;19.10;1.00
8152;DHT22;4117;53.622;9.958;2023-05-15T15:15:21;19.20;1.00
8152;DHT22;4117;53.622;9.958;2023-05-15T15:17:48;19.30;1.00
8152;DHT22;4117;53.622;9.958;2023-05-15T15:20:16;19.40;1.00
8152;DHT22;4117;53.622;9.958;2023-05-15T15:22:44;19.40;1.00
8152;DHT22;4117;53.622;9.958;2023-05-15T15:25:10;19.40;1.00
8152;DHT22;4117;53.622;9.958;2023-05-15T15:27:38;19.40;1.00
8152;DHT22;4117;53.622;9.958;2023-05-15T15:30:08;19.20;1.00
8152;DHT22;4117;53.622;9.958;2023-05-15T15:32:36;19.10;1.00
8152;DHT22;4117;53.622;9.958;2023-05-15T15:35:03;19.00;1.00
8152;DHT22;4117;53.622;9.958;2023-05-15T15:37:31;19.00;1.00
8152;DHT22;4117;53.622;9.958;2023-05-15T15:39:59;18.90;1.00
8152;DHT22;4117;53.622;9.958;2023-05-15T15:42:26;18.90;1.00
8152;DHT22;4117;53.622;9.958;2023-05-15T15:44:54;18.90;1.00
8152;DHT22;4117;53.622;9.958;2023-05-15T15:47:22;18.90;1.00
8152;DHT22;4117;53.622;9.958;2023-05-15T15:49:50;18.80;1.00
8152;DHT22;4117;53.622;9.958;2023-05-15T15:52:17;18.60;1.00
8152;DHT22;4117;53.622;9.958;2023-05-15T15:54:44;18.70;1.00
8152;DHT22;4117;53.622;9.958;2023-05-15T15:57:12;18.80;1.00
8152;DHT22;4117;53.622;9.958;2023-05-15T15:59:39;18.80;1.00
8152;DHT22;4117;53.622;9.958;2023-05-15T16:02:07;18.80;1.00
8152;DHT22;4117;53.622;9.958;2023-05-15T16:04:35;18.70;1.00
8152;DHT22;4117;53.622;9.958;2023-05-15T16:07:03;18.90;1.00
8152;DHT22;4117;53.622;9.958;2023-05-15T16:09:31;18.90;1.00
8152;DHT22;4117;53.622;9.958;2023-05-15T16:11:58;18.90;1.00
8152;DHT22;4117;53.622;9.958;2023-05-15T16:14:26;18.80;1.00
8152;DHT22;4117;53.622;9.958;2023-05-15T16:16:53;18.70;1.00
8152;DHT22;4117;53.622;9.958;2023-05-15T16:19:20;18.50;1.00
8152;DHT22;4117;53.622;9.958;2023-05-15T16:21:48;18.50;1.00
8152;DHT22;4117;53.622;9.958;2023-05-15T16:24:15;18.40;1.00
8152;DHT22;4117;53.622;9.958;2023-05-15T16:26:42;18.40;1.00
8152;DHT22;4117;53.622;9.958;2023-05-15T16:29:09;18.20;1.00
8152;DHT22;4117;53.622;9.958;2023-05-15T16:31:36;18.20;1.00
8152;DHT22;4117;53.622;9.958;2023-05-15T16:34:03;18.30;1.00